Portada
METAR-TAF:

METAR-TAF

Aeroports :

Johnson County Executive Airport

Olathe, Kansas, Estats Units d'Amèrica

latitud: 38-51-00N, longitud: 094-44-21W, altitud: 334 m

Observació

L'informe es va fer fa 28 minuts, a les 00:53 UTC
Vent 8 kt del Sud/Sud-Oest
Temperatura 34°C
Humitat 47%
Pressió 1009 hPa
Visibilitat: 16.1 km
Cel clar

METAR: KOJC 250053Z 20008KT 10SM CLR 34/21 A2981 RMK AO2 SLPNO T03390211

Hora: 20:21 (01:21 UTC)


TAF: manca

Observacions i pronòstics meteorològics de més de 4000 aeroports (METAR i TAF).

Les estacions disponibles són els punts grocs i vermells al mapa.

Posi el ratolí al punt desitjat per veure el nom de l'estació.

Feu clic per veure les observacions i els pronòstics meteorològics.

Per canviar el mapa: feu clic els botons verds amb una creu de color negre per apropar; al botó verd amb un guió per allunyar la imatge; o en les fletxes verdes per a mapes adjacents.


METAR-TAF: